»·PEaware :: N105MS KSLE-KOTH

N105MS :: KSLE-KOTH

FLIGHT INFORMATION

Flight Status: Arrived
Operator: Privately registered:
United States
More flights under this callsign
Pilot: Mike T. (22952)
Aircraft: CESSNA 172 SKYHAWK
(C172)
More flights by this aircraft type
Origin: KSLE McNary
United States
Destination: KOTH North Bend Mun
United States
More flights between these airports :: More routes between these airports
Route: CRAAF T274 ONP V27 OTH
File this flight plan on PilotEdge
Remarks: CAN YOU PUT ME IN A RANDOM HOLD ALONG ROUTE?
Altitude:
(Current/Filed)
6,000ft
Speed:
(Current/Filed)
110kts
Departed: 04-Sep-20 03:11 PM
Arrived: 04-Sep-20 04:32 PM
Distance/Time
Traveled:
104nm/1:21
Distance/Time
To Go:
Arrived

Flight Plot

Page will automatically refresh every two minutes.

Flight plan parsing failed; only flown route is shown


Map Options




Map Legend


Flown Route
Filed Route
Departure Airport
Arrival Airport
Navaid (VOR, NDB)
Fix

Horizontal Profiles

Position Reports

Time Latitude Longitude Heading Altitude Ground
Speed
04-Sep-20 14:44 44.908424 -123.006505 258 201ft 0kts
04-Sep-20 14:45 44.908424 -123.006505 258 201ft 0kts
04-Sep-20 14:46 44.908424 -123.006505 258 201ft 0kts
04-Sep-20 14:47 44.908424 -123.006505 258 201ft 0kts
04-Sep-20 14:48 44.908424 -123.006505 258 201ft 0kts
04-Sep-20 14:49 44.908424 -123.006505 258 201ft 0kts
04-Sep-20 14:50 44.908424 -123.006505 258 201ft 0kts
04-Sep-20 14:51 44.908424 -123.006505 258 201ft 0kts
04-Sep-20 14:52 44.908424 -123.006505 258 201ft 0kts
04-Sep-20 14:53 44.908424 -123.006505 258 201ft 0kts
04-Sep-20 14:54 44.908424 -123.006505 258 201ft 0kts
04-Sep-20 14:55 44.908424 -123.006505 258 201ft 0kts
04-Sep-20 14:56 44.908424 -123.006505 258 201ft 0kts
04-Sep-20 14:57 44.908424 -123.006505 258 201ft 0kts
04-Sep-20 14:58 44.908424 -123.006505 258 201ft 0kts
04-Sep-20 14:59 44.908424 -123.006505 258 201ft 0kts
04-Sep-20 15:00 44.908424 -123.006505 258 201ft 0kts
04-Sep-20 15:01 44.908424 -123.006505 258 201ft 0kts
04-Sep-20 15:02 44.908424 -123.006505 258 201ft 0kts
04-Sep-20 15:03 44.908424 -123.006505 258 201ft 0kts
04-Sep-20 15:04 44.908424 -123.006505 258 201ft 0kts
04-Sep-20 15:05 44.908284 -123.006370 161 202ft 3kts
04-Sep-20 15:06 44.905824 -123.005543 181 203ft 17kts
04-Sep-20 15:07 44.902495 -123.004540 132 204ft 6kts
04-Sep-20 15:08 44.902453 -123.004481 131 204ft 0kts
04-Sep-20 15:09 44.902398 -123.003564 358 204ft 0kts
04-Sep-20 15:10 44.916479 -123.003055 359 532ft 93kts
04-Sep-20 15:11 44.935207 -123.014792 250 1548ft 84kts
04-Sep-20 15:12 44.919575 -123.037716 235 2511ft 82kts
04-Sep-20 15:13 44.907503 -123.065256 232 3414ft 83kts
04-Sep-20 15:14 44.894414 -123.091532 233 4242ft 82kts
04-Sep-20 15:15 44.880818 -123.115865 225 5049ft 78kts
04-Sep-20 15:16 44.867671 -123.140332 229 5842ft 78kts
04-Sep-20 15:17 44.851560 -123.169613 232 5943ft 101kts
04-Sep-20 15:18 44.836697 -123.202697 238 5882ft 100kts
04-Sep-20 15:19 44.821760 -123.234842 230 5966ft 98kts
04-Sep-20 15:20 44.804951 -123.266196 232 5969ft 101kts
04-Sep-20 15:21 44.788369 -123.297784 232 6004ft 99kts
04-Sep-20 15:22 44.769705 -123.327346 233 6006ft 103kts
04-Sep-20 15:23 44.749761 -123.357509 234 6008ft 107kts
04-Sep-20 15:24 44.731899 -123.391301 244 6010ft 109kts
04-Sep-20 15:25 44.714825 -123.427438 244 6016ft 112kts
04-Sep-20 15:26 44.698691 -123.463869 246 5992ft 107kts
04-Sep-20 15:27 44.682544 -123.500162 246 5993ft 108kts
04-Sep-20 15:28 44.666349 -123.536538 246 5990ft 108kts
04-Sep-20 15:29 44.651189 -123.573208 263 5996ft 105kts
04-Sep-20 15:30 44.644314 -123.613664 263 6006ft 107kts
04-Sep-20 15:31 44.636978 -123.655363 263 6017ft 112kts
04-Sep-20 15:32 44.629579 -123.697717 263 6052ft 107kts
04-Sep-20 15:33 44.624069 -123.736324 263 6098ft 97kts
04-Sep-20 15:34 44.621513 -123.773821 261 6093ft 96kts
04-Sep-20 15:35 44.617402 -123.810769 253 6100ft 99kts
04-Sep-20 15:36 44.612121 -123.848686 253 6095ft 95kts
04-Sep-20 15:37 44.607509 -123.885112 250 6092ft 92kts
04-Sep-20 15:38 44.601906 -123.920898 250 6101ft 95kts
04-Sep-20 15:39 44.596258 -123.957205 250 6095ft 95kts
04-Sep-20 15:40 44.590839 -123.993321 250 6095ft 95kts
04-Sep-20 15:41 44.585298 -124.029558 247 6092ft 94kts
04-Sep-20 15:42 44.573873 -124.060667 200 6093ft 90kts
04-Sep-20 15:43 44.548775 -124.063404 191 6092ft 90kts
04-Sep-20 15:44 44.523612 -124.066633 189 6095ft 91kts
04-Sep-20 15:45 44.498379 -124.069178 188 6091ft 90kts
04-Sep-20 15:46 44.473177 -124.071690 189 6096ft 91kts
04-Sep-20 15:47 44.426402 -124.076323 189 6080ft 91kts
04-Sep-20 15:48 44.325730 -124.086189 189 6089ft 91kts
04-Sep-20 15:49 44.224247 -124.095662 189 6077ft 89kts
04-Sep-20 15:50 44.161285 -124.101456 188 6136ft 88kts
04-Sep-20 15:51 44.071385 -124.110012 190 6126ft 76kts
04-Sep-20 15:52 43.983957 -124.118303 188 6124ft 84kts
04-Sep-20 15:53 43.888161 -124.125946 188 6118ft 88kts
04-Sep-20 15:54 43.788361 -124.135376 188 6114ft 91kts
04-Sep-20 15:55 43.743460 -124.140543 208 6115ft 92kts
04-Sep-20 15:56 43.722544 -124.161859 213 6058ft 97kts
04-Sep-20 15:57 43.699846 -124.181552 212 6046ft 95kts
04-Sep-20 15:58 43.677470 -124.200641 212 6046ft 94kts
04-Sep-20 15:59 43.655040 -124.219740 212 6046ft 94kts
04-Sep-20 16:00 43.632648 -124.238751 212 6053ft 94kts
04-Sep-20 16:02 43.610411 -124.257650 214 6055ft 93kts
04-Sep-20 16:03 43.588221 -124.276501 215 6059ft 100kts
04-Sep-20 16:04 43.562592 -124.298204 215 6054ft 108kts
04-Sep-20 16:05 43.536882 -124.319811 215 6055ft 108kts
04-Sep-20 16:06 43.511172 -124.341458 216 6055ft 108kts
04-Sep-20 16:07 43.485468 -124.363213 216 6054ft 108kts
04-Sep-20 16:08 43.459844 -124.384902 216 6054ft 108kts
04-Sep-20 16:09 43.435049 -124.405805 216 5587ft 97kts
04-Sep-20 16:10 43.411660 -124.425647 216 4837ft 106kts
04-Sep-20 16:11 43.389337 -124.444388 216 4239ft 83kts
04-Sep-20 16:12 43.369570 -124.461090 215 3737ft 85kts
04-Sep-20 16:13 43.348777 -124.478454 214 3262ft 90kts
04-Sep-20 16:14 43.328751 -124.496881 220 3152ft 89kts
04-Sep-20 16:15 43.308943 -124.516026 216 3048ft 83kts
04-Sep-20 16:16 43.290898 -124.535199 223 3085ft 82kts
04-Sep-20 16:17 43.274781 -124.557203 234 3267ft 81kts
04-Sep-20 16:18 43.264952 -124.583982 289 3237ft 86kts
04-Sep-20 16:18 43.282673 -124.582966 59 3153ft 102kts
04-Sep-20 16:20 43.298063 -124.543306 61 3152ft 99kts
04-Sep-20 16:21 43.311372 -124.508768 65 3029ft 102kts
04-Sep-20 16:21 43.321959 -124.481061 59 2701ft 91kts
04-Sep-20 16:22 43.334862 -124.453812 56 2150ft 86kts
04-Sep-20 16:24 43.348875 -124.419763 61 1694ft 88kts
04-Sep-20 16:24 43.358363 -124.395188 59 1640ft 84kts
04-Sep-20 16:25 43.370999 -124.366924 62 1563ft 88kts
04-Sep-20 16:26 43.382983 -124.337719 60 1367ft 88kts
04-Sep-20 16:27 43.395014 -124.308199 61 881ft 87kts
04-Sep-20 16:28 43.407078 -124.279195 58 699ft 86kts
04-Sep-20 16:29 43.410657 -124.252793 162 738ft 78kts
04-Sep-20 16:30 43.404823 -124.234518 344 381ft 76kts
04-Sep-20 16:31 43.415312 -124.242628 325 10ft 5kts
04-Sep-20 16:32 43.415024 -124.244666 236 10ft 0kts

Navigation Log

Ident Type
Flight plan parsing failed, navigation log unavailable